sensor_id;sensor_type;location;lat;lon;timestamp;pressure;altitude;pressure_sealevel;temperature;humidity
10482;BME280;5288;42.334;23.876;2023-04-09T00:00:39;56403.19;;;-140.56;80.13
10482;BME280;5288;42.334;23.876;2023-04-09T00:03:05;56401.22;;;-140.56;80.03
10482;BME280;5288;42.334;23.876;2023-04-09T00:05:37;56375.53;;;-140.56;79.78
10482;BME280;5288;42.334;23.876;2023-04-09T00:08:05;56391.34;;;-140.56;79.72
10482;BME280;5288;42.334;23.876;2023-04-09T00:10:32;56389.34;;;-140.56;79.76
10482;BME280;5288;42.334;23.876;2023-04-09T00:12:59;56397.25;;;-140.56;79.88
10482;BME280;5288;42.334;23.876;2023-04-09T00:15:25;56405.16;;;-140.56;79.20
10482;BME280;5288;42.334;23.876;2023-04-09T00:17:52;56403.19;;;-140.56;79.16
10482;BME280;5288;42.334;23.876;2023-04-09T00:20:21;56415.06;;;-140.56;78.87
10482;BME280;5288;42.334;23.876;2023-04-09T00:22:50;56440.75;;;-140.56;79.36
10482;BME280;5288;42.334;23.876;2023-04-09T00:25:17;56426.91;;;-140.56;79.04
10482;BME280;5288;42.334;23.876;2023-04-09T00:27:44;56436.78;;;-140.56;79.14
10482;BME280;5288;42.334;23.876;2023-04-09T00:30:11;56403.19;;;-140.56;79.08
10482;BME280;5288;42.334;23.876;2023-04-09T00:32:38;56420.97;;;-140.56;79.15
10482;BME280;5288;42.334;23.876;2023-04-09T00:35:05;56395.28;;;-140.56;79.34
10482;BME280;5288;42.334;23.876;2023-04-09T00:37:32;56413.06;;;-140.56;79.29
10482;BME280;5288;42.334;23.876;2023-04-09T00:40:01;56403.19;;;-140.56;79.79
10482;BME280;5288;42.334;23.876;2023-04-09T00:42:30;56357.75;;;-140.56;80.28
10482;BME280;5288;42.334;23.876;2023-04-09T00:44:57;56417.03;;;-140.56;79.83
10482;BME280;5288;42.334;23.876;2023-04-09T00:47:24;56397.25;;;-140.56;79.29
10482;BME280;5288;42.334;23.876;2023-04-09T00:49:55;56413.06;;;-140.56;78.84
10482;BME280;5288;42.334;23.876;2023-04-09T00:52:23;56442.72;;;-140.56;79.38
10482;BME280;5288;42.334;23.876;2023-04-09T00:54:50;56383.44;;;-140.56;79.75
10482;BME280;5288;42.334;23.876;2023-04-09T00:57:19;56405.16;;;-140.56;80.18
10482;BME280;5288;42.334;23.876;2023-04-09T00:59:46;56438.78;;;-140.56;80.25
10482;BME280;5288;42.334;23.876;2023-04-09T01:02:13;56369.59;;;-140.56;80.18
10482;BME280;5288;42.334;23.876;2023-04-09T01:04:41;56413.06;;;-140.56;79.29
10482;BME280;5288;42.334;23.876;2023-04-09T01:07:13;56409.13;;;-140.56;78.96
10482;BME280;5288;42.334;23.876;2023-04-09T01:09:46;56401.22;;;-140.56;78.78
10482;BME280;5288;42.334;23.876;2023-04-09T01:12:24;56419.00;;;-140.56;78.67
10482;BME280;5288;42.334;23.876;2023-04-09T01:15:05;56424.94;;;-140.56;79.09
10482;BME280;5288;42.334;23.876;2023-04-09T01:17:39;56428.88;;;-140.56;79.73
10482;BME280;5288;42.334;23.876;2023-04-09T01:20:10;56442.72;;;-140.56;79.78
10482;BME280;5288;42.334;23.876;2023-04-09T01:22:48;56446.69;;;-140.56;79.57
10482;BME280;5288;42.334;23.876;2023-04-09T01:25:43;56395.28;;;-140.56;79.82
10482;BME280;5288;42.334;23.876;2023-04-09T01:28:16;56444.69;;;-140.56;79.79
10482;BME280;5288;42.334;23.876;2023-04-09T01:30:47;56419.00;;;-140.56;79.04
10482;BME280;5288;42.334;23.876;2023-04-09T01:33:17;56420.97;;;-140.56;79.10
10482;BME280;5288;42.334;23.876;2023-04-09T01:35:46;56407.16;;;-140.56;78.78
10482;BME280;5288;42.334;23.876;2023-04-09T01:38:16;56422.97;;;-140.56;78.92
10482;BME280;5288;42.334;23.876;2023-04-09T01:40:44;56420.97;;;-140.56;78.42
10482;BME280;5288;42.334;23.876;2023-04-09T01:43:12;56422.97;;;-140.56;78.11
10482;BME280;5288;42.334;23.876;2023-04-09T01:45:41;56399.25;;;-140.56;78.84
10482;BME280;5288;42.334;23.876;2023-04-09T01:48:09;56411.09;;;-140.56;79.85
10482;BME280;5288;42.334;23.876;2023-04-09T01:50:37;56397.25;;;-140.56;80.28
10482;BME280;5288;42.334;23.876;2023-04-09T01:53:04;56426.91;;;-140.56;80.85
10482;BME280;5288;42.334;23.876;2023-04-09T01:55:31;56420.97;;;-140.56;80.35
10482;BME280;5288;42.334;23.876;2023-04-09T01:57:58;56438.78;;;-140.56;79.81
10482;BME280;5288;42.334;23.876;2023-04-09T02:00:34;56415.06;;;-140.56;79.64
10482;BME280;5288;42.334;23.876;2023-04-09T02:03:07;56401.22;;;-140.56;79.88
10482;BME280;5288;42.334;23.876;2023-04-09T02:05:37;56411.09;;;-140.56;79.76
10482;BME280;5288;42.334;23.876;2023-04-09T02:08:09;56405.16;;;-140.56;79.45
10482;BME280;5288;42.334;23.876;2023-04-09T02:10:39;56415.06;;;-140.56;79.56
10482;BME280;5288;42.334;23.876;2023-04-09T02:13:12;56413.06;;;-140.56;80.03
10482;BME280;5288;42.334;23.876;2023-04-09T02:15:42;56434.81;;;-140.56;80.05
10482;BME280;5288;42.334;23.876;2023-04-09T02:18:22;56417.03;;;-140.56;80.63
10482;BME280;5288;42.334;23.876;2023-04-09T02:20:50;56411.09;;;-140.56;80.28
10482;BME280;5288;42.334;23.876;2023-04-09T02:23:17;56397.25;;;-140.56;80.37
10482;BME280;5288;42.334;23.876;2023-04-09T02:25:45;56422.97;;;-140.56;80.66
10482;BME280;5288;42.334;23.876;2023-04-09T02:28:12;56411.09;;;-140.56;80.99
10482;BME280;5288;42.334;23.876;2023-04-09T02:30:40;56411.09;;;-140.56;80.88
10482;BME280;5288;42.334;23.876;2023-04-09T02:33:07;56436.78;;;-140.56;80.71
10482;BME280;5288;42.334;23.876;2023-04-09T02:35:35;56436.78;;;-140.56;80.79
10482;BME280;5288;42.334;23.876;2023-04-09T02:38:02;56413.06;;;-140.56;81.36
10482;BME280;5288;42.334;23.876;2023-04-09T02:40:29;56409.13;;;-140.56;81.51
10482;BME280;5288;42.334;23.876;2023-04-09T02:42:56;56397.25;;;-140.56;81.91
10482;BME280;5288;42.334;23.876;2023-04-09T02:45:24;56428.88;;;-140.56;81.57
10482;BME280;5288;42.334;23.876;2023-04-09T02:47:51;56442.72;;;-140.56;81.99
10482;BME280;5288;42.334;23.876;2023-04-09T02:50:18;56420.97;;;-140.56;81.81
10482;BME280;5288;42.334;23.876;2023-04-09T02:52:46;56391.34;;;-140.56;81.79
10482;BME280;5288;42.334;23.876;2023-04-09T02:55:14;56405.16;;;-140.56;81.44
10482;BME280;5288;42.334;23.876;2023-04-09T02:57:41;56432.84;;;-140.56;81.86
10482;BME280;5288;42.334;23.876;2023-04-09T03:00:11;56430.88;;;-140.56;82.40
10482;BME280;5288;42.334;23.876;2023-04-09T03:02:38;56460.50;;;-140.56;82.35
10482;BME280;5288;42.334;23.876;2023-04-09T03:05:05;56438.78;;;-140.56;82.51
10482;BME280;5288;42.334;23.876;2023-04-09T03:07:32;56448.66;;;-140.56;82.76
10482;BME280;5288;42.334;23.876;2023-04-09T03:10:01;56448.66;;;-140.56;82.95
10482;BME280;5288;42.334;23.876;2023-04-09T03:12:28;56444.69;;;-140.56;83.37
10482;BME280;5288;42.334;23.876;2023-04-09T03:14:55;56417.03;;;-140.56;83.55
10482;BME280;5288;42.334;23.876;2023-04-09T03:17:22;56440.75;;;-140.56;83.99
10482;BME280;5288;42.334;23.876;2023-04-09T03:19:51;56401.22;;;-140.56;84.12
10482;BME280;5288;42.334;23.876;2023-04-09T03:22:20;56419.00;;;-140.56;83.96
10482;BME280;5288;42.334;23.876;2023-04-09T03:24:47;56444.69;;;-140.56;83.32
10482;BME280;5288;42.334;23.876;2023-04-09T03:27:15;56430.88;;;-140.56;83.49
10482;BME280;5288;42.334;23.876;2023-04-09T03:29:42;56428.88;;;-140.56;83.25
10482;BME280;5288;42.334;23.876;2023-04-09T03:32:09;56428.88;;;-140.56;83.32
10482;BME280;5288;42.334;23.876;2023-04-09T03:34:36;56393.31;;;-140.56;82.83
10482;BME280;5288;42.334;23.876;2023-04-09T03:37:03;56420.97;;;-140.56;83.23
10482;BME280;5288;42.334;23.876;2023-04-09T03:39:30;56403.19;;;-140.56;83.64
10482;BME280;5288;42.334;23.876;2023-04-09T03:41:57;56436.78;;;-140.56;83.95
10482;BME280;5288;42.334;23.876;2023-04-09T03:44:25;56432.84;;;-140.56;84.03
10482;BME280;5288;42.334;23.876;2023-04-09T03:46:52;56422.97;;;-140.56;83.29
10482;BME280;5288;42.334;23.876;2023-04-09T03:49:19;56411.09;;;-140.56;83.66
10482;BME280;5288;42.334;23.876;2023-04-09T03:51:46;56405.16;;;-140.56;83.21
10482;BME280;5288;42.334;23.876;2023-04-09T03:54:13;56438.78;;;-140.56;82.84
10482;BME280;5288;42.334;23.876;2023-04-09T03:56:40;56434.81;;;-140.56;83.27
10482;BME280;5288;42.334;23.876;2023-04-09T03:59:07;56413.06;;;-140.56;83.07
10482;BME280;5288;42.334;23.876;2023-04-09T04:01:36;56434.81;;;-140.56;83.17
10482;BME280;5288;42.334;23.876;2023-04-09T04:04:03;56428.88;;;-140.56;82.79
10482;BME280;5288;42.334;23.876;2023-04-09T04:06:32;56446.69;;;-140.56;82.90
10482;BME280;5288;42.334;23.876;2023-04-09T04:08:59;56428.88;;;-140.56;82.61
10482;BME280;5288;42.334;23.876;2023-04-09T04:11:26;56436.78;;;-140.56;82.08
10482;BME280;5288;42.334;23.876;2023-04-09T04:13:54;56422.97;;;-140.56;83.06
10482;BME280;5288;42.334;23.876;2023-04-09T04:16:22;56424.94;;;-140.56;83.17
10482;BME280;5288;42.334;23.876;2023-04-09T04:18:51;56436.78;;;-140.56;83.91
10482;BME280;5288;42.334;23.876;2023-04-09T04:21:18;56405.16;;;-140.56;83.86
10482;BME280;5288;42.334;23.876;2023-04-09T04:23:44;56456.56;;;-140.56;83.75
10482;BME280;5288;42.334;23.876;2023-04-09T04:26:11;56424.94;;;-140.56;83.70
10482;BME280;5288;42.334;23.876;2023-04-09T04:28:39;56417.03;;;-140.56;83.56
10482;BME280;5288;42.334;23.876;2023-04-09T04:31:07;56407.16;;;-140.56;83.76
10482;BME280;5288;42.334;23.876;2023-04-09T04:33:35;56432.84;;;-140.56;83.42
10482;BME280;5288;42.334;23.876;2023-04-09T04:36:08;56422.97;;;-140.56;83.55
10482;BME280;5288;42.334;23.876;2023-04-09T04:38:36;56448.66;;;-140.56;83.07
10482;BME280;5288;42.334;23.876;2023-04-09T04:41:03;56452.59;;;-140.56;83.51
10482;BME280;5288;42.334;23.876;2023-04-09T04:43:30;56438.78;;;-140.56;83.99
10482;BME280;5288;42.334;23.876;2023-04-09T04:45:57;56454.59;;;-140.56;84.49
10482;BME280;5288;42.334;23.876;2023-04-09T04:48:25;56442.72;;;-140.56;84.72
10482;BME280;5288;42.334;23.876;2023-04-09T04:50:56;56419.00;;;-140.56;84.56
10482;BME280;5288;42.334;23.876;2023-04-09T04:53:24;56450.63;;;-140.56;84.89
10482;BME280;5288;42.334;23.876;2023-04-09T04:55:52;56444.69;;;-140.56;84.67
10482;BME280;5288;42.334;23.876;2023-04-09T04:58:19;56432.84;;;-140.56;84.79
10482;BME280;5288;42.334;23.876;2023-04-09T05:00:46;56409.13;;;-140.56;85.07
10482;BME280;5288;42.334;23.876;2023-04-09T05:03:13;56411.09;;;-140.56;84.79
10482;BME280;5288;42.334;23.876;2023-04-09T05:05:40;56448.66;;;-140.56;84.56
10482;BME280;5288;42.334;23.876;2023-04-09T05:08:07;56417.03;;;-140.56;84.27
10482;BME280;5288;42.334;23.876;2023-04-09T05:10:35;56452.59;;;-140.56;84.27
10482;BME280;5288;42.334;23.876;2023-04-09T05:13:02;56436.78;;;-140.56;84.08
10482;BME280;5288;42.334;23.876;2023-04-09T05:15:29;56432.84;;;-140.56;84.02
10482;BME280;5288;42.334;23.876;2023-04-09T05:17:56;56442.72;;;-140.56;83.75
10482;BME280;5288;42.334;23.876;2023-04-09T05:20:26;56448.66;;;-140.56;83.12
10482;BME280;5288;42.334;23.876;2023-04-09T05:22:55;56434.81;;;-140.56;83.06
10482;BME280;5288;42.334;23.876;2023-04-09T05:25:25;56446.69;;;-140.56;82.61
10482;BME280;5288;42.334;23.876;2023-04-09T05:27:53;56438.78;;;-140.56;82.35
10482;BME280;5288;42.334;23.876;2023-04-09T05:30:20;56452.59;;;-140.56;81.96
10482;BME280;5288;42.334;23.876;2023-04-09T05:32:47;56460.50;;;-140.56;82.08
10482;BME280;5288;42.334;23.876;2023-04-09T05:35:14;56420.97;;;-140.56;82.48
10482;BME280;5288;42.334;23.876;2023-04-09T05:37:41;56438.78;;;-140.56;82.50
10482;BME280;5288;42.334;23.876;2023-04-09T05:40:09;56442.72;;;-140.56;83.04
10482;BME280;5288;42.334;23.876;2023-04-09T05:42:36;56428.88;;;-140.56;83.07
10482;BME280;5288;42.334;23.876;2023-04-09T05:45:06;56450.63;;;-140.56;83.16
10482;BME280;5288;42.334;23.876;2023-04-09T05:47:33;56432.84;;;-140.56;83.00
10482;BME280;5288;42.334;23.876;2023-04-09T05:50:00;56430.88;;;-140.56;82.50
10482;BME280;5288;42.334;23.876;2023-04-09T05:52:27;56415.06;;;-140.56;81.94
10482;BME280;5288;42.334;23.876;2023-04-09T05:54:54;56474.34;;;-140.56;82.03
10482;BME280;5288;42.334;23.876;2023-04-09T05:57:21;56462.47;;;-140.56;82.01
10482;BME280;5288;42.334;23.876;2023-04-09T05:59:48;56454.59;;;-140.56;82.13
10482;BME280;5288;42.334;23.876;2023-04-09T06:02:16;56426.91;;;-140.56;81.45
10482;BME280;5288;42.334;23.876;2023-04-09T06:04:43;56426.91;;;-140.56;81.42
10482;BME280;5288;42.334;23.876;2023-04-09T06:07:10;56474.34;;;-140.56;80.40
10482;BME280;5288;42.334;23.876;2023-04-09T06:09:37;56428.88;;;-140.56;80.84
10482;BME280;5288;42.334;23.876;2023-04-09T06:12:04;56413.06;;;-140.56;80.77
10482;BME280;5288;42.334;23.876;2023-04-09T06:14:31;56434.81;;;-140.56;80.40
10482;BME280;5288;42.334;23.876;2023-04-09T06:16:58;56444.69;;;-140.56;80.40
10482;BME280;5288;42.334;23.876;2023-04-09T06:19:26;56438.78;;;-140.56;80.83
10482;BME280;5288;42.334;23.876;2023-04-09T06:21:53;56417.03;;;-140.56;80.10
10482;BME280;5288;42.334;23.876;2023-04-09T06:24:20;56440.75;;;-140.56;80.11
10482;BME280;5288;42.334;23.876;2023-04-09T06:26:47;56464.47;;;-140.56;79.62
10482;BME280;5288;42.334;23.876;2023-04-09T06:29:14;56424.94;;;-140.56;79.83
10482;BME280;5288;42.334;23.876;2023-04-09T06:31:41;56448.66;;;-140.56;79.30
10482;BME280;5288;42.334;23.876;2023-04-09T06:34:08;56424.94;;;-140.56;78.51
10482;BME280;5288;42.334;23.876;2023-04-09T06:36:37;56415.06;;;-140.56;77.75
10482;BME280;5288;42.334;23.876;2023-04-09T06:39:05;56484.22;;;-140.56;77.72
10482;BME280;5288;42.334;23.876;2023-04-09T06:41:32;56407.16;;;-140.56;77.53
10482;BME280;5288;42.334;23.876;2023-04-09T06:43:58;56436.78;;;-140.56;77.38
10482;BME280;5288;42.334;23.876;2023-04-09T06:46:26;56395.28;;;-140.56;77.09
10482;BME280;5288;42.334;23.876;2023-04-09T06:48:53;56428.88;;;-140.56;76.56
10482;BME280;5288;42.334;23.876;2023-04-09T06:51:20;56446.69;;;-140.56;77.47
10482;BME280;5288;42.334;23.876;2023-04-09T06:53:48;56464.47;;;-140.56;77.39
10482;BME280;5288;42.334;23.876;2023-04-09T06:56:15;56444.69;;;-140.56;77.48
10482;BME280;5288;42.334;23.876;2023-04-09T06:58:42;56440.75;;;-140.56;77.79
10482;BME280;5288;42.334;23.876;2023-04-09T07:01:09;56428.88;;;-140.56;77.47
10482;BME280;5288;42.334;23.876;2023-04-09T07:03:36;56401.22;;;-140.56;77.55
10482;BME280;5288;42.334;23.876;2023-04-09T07:06:03;56448.66;;;-140.56;76.91
10482;BME280;5288;42.334;23.876;2023-04-09T07:08:30;56409.13;;;-140.56;76.49
10482;BME280;5288;42.334;23.876;2023-04-09T07:10:58;56403.19;;;-140.56;76.12
10482;BME280;5288;42.334;23.876;2023-04-09T07:13:26;56454.59;;;-140.56;76.54
10482;BME280;5288;42.334;23.876;2023-04-09T07:15:52;56405.16;;;-140.56;76.83
10482;BME280;5288;42.334;23.876;2023-04-09T07:18:19;56430.88;;;-140.56;76.29
10482;BME280;5288;42.334;23.876;2023-04-09T07:20:46;56422.97;;;-140.56;75.87
10482;BME280;5288;42.334;23.876;2023-04-09T07:23:13;56387.38;;;-140.56;75.47
10482;BME280;5288;42.334;23.876;2023-04-09T07:25:40;56460.50;;;-140.56;75.58
10482;BME280;5288;42.334;23.876;2023-04-09T07:28:09;56446.69;;;-140.56;75.47
10482;BME280;5288;42.334;23.876;2023-04-09T07:30:38;56417.03;;;-140.56;74.79
10482;BME280;5288;42.334;23.876;2023-04-09T07:33:05;56460.50;;;-140.56;74.69
10482;BME280;5288;42.334;23.876;2023-04-09T07:35:32;56422.97;;;-140.56;74.83
10482;BME280;5288;42.334;23.876;2023-04-09T07:37:59;56405.16;;;-140.56;74.68
10482;BME280;5288;42.334;23.876;2023-04-09T07:40:26;56417.03;;;-140.56;74.77
10482;BME280;5288;42.334;23.876;2023-04-09T07:42:53;56413.06;;;-140.56;74.04
10482;BME280;5288;42.334;23.876;2023-04-09T07:45:22;56438.78;;;-140.56;73.83
10482;BME280;5288;42.334;23.876;2023-04-09T07:47:49;56417.03;;;-140.56;73.11
10482;BME280;5288;42.334;23.876;2023-04-09T07:50:16;56440.75;;;-140.56;72.57
10482;BME280;5288;42.334;23.876;2023-04-09T07:52:42;56413.06;;;-140.56;72.37
10482;BME280;5288;42.334;23.876;2023-04-09T07:55:10;56379.47;;;-140.56;73.13
10482;BME280;5288;42.334;23.876;2023-04-09T07:57:37;56389.34;;;-140.56;73.03
10482;BME280;5288;42.334;23.876;2023-04-09T08:00:05;56417.03;;;-140.56;72.89
10482;BME280;5288;42.334;23.876;2023-04-09T08:02:34;56401.22;;;-140.56;72.80
10482;BME280;5288;42.334;23.876;2023-04-09T08:05:01;56405.16;;;-140.56;72.93
10482;BME280;5288;42.334;23.876;2023-04-09T08:07:28;56393.31;;;-140.56;70.96
10482;BME280;5288;42.334;23.876;2023-04-09T08:09:55;56389.34;;;-140.56;70.68
10482;BME280;5288;42.334;23.876;2023-04-09T08:12:22;56409.13;;;-140.56;70.74
10482;BME280;5288;42.334;23.876;2023-04-09T08:14:48;56393.31;;;-140.56;71.05
10482;BME280;5288;42.334;23.876;2023-04-09T08:17:15;56403.19;;;-140.56;71.91
10482;BME280;5288;42.334;23.876;2023-04-09T08:19:44;56413.06;;;-140.56;71.04
10482;BME280;5288;42.334;23.876;2023-04-09T08:22:11;56415.06;;;-140.56;71.00
10482;BME280;5288;42.334;23.876;2023-04-09T08:24:38;56375.53;;;-140.56;71.00
10482;BME280;5288;42.334;23.876;2023-04-09T08:27:04;56403.19;;;-140.56;70.77
10482;BME280;5288;42.334;23.876;2023-04-09T08:29:31;56393.31;;;-140.56;70.83
10482;BME280;5288;42.334;23.876;2023-04-09T08:31:58;56403.19;;;-140.56;70.27
10482;BME280;5288;42.334;23.876;2023-04-09T08:34:26;56399.25;;;-140.56;69.86
10482;BME280;5288;42.334;23.876;2023-04-09T08:36:54;56397.25;;;-140.56;68.95
10482;BME280;5288;42.334;23.876;2023-04-09T08:39:22;56393.31;;;-140.56;69.28
10482;BME280;5288;42.334;23.876;2023-04-09T08:41:50;56407.16;;;-140.56;68.18
10482;BME280;5288;42.334;23.876;2023-04-09T08:44:17;56367.63;;;-140.56;67.45
10482;BME280;5288;42.334;23.876;2023-04-09T08:46:46;56369.59;;;-140.56;67.28
10482;BME280;5288;42.334;23.876;2023-04-09T08:49:13;56339.94;;;-140.56;66.68
10482;BME280;5288;42.334;23.876;2023-04-09T08:51:44;56371.56;;;-140.56;66.18
10482;BME280;5288;42.334;23.876;2023-04-09T08:54:13;56341.94;;;-140.56;64.62
10482;BME280;5288;42.334;23.876;2023-04-09T08:56:41;56357.75;;;-140.56;65.06
10482;BME280;5288;42.334;23.876;2023-04-09T08:59:08;56314.25;;;-140.56;64.04
10482;BME280;5288;42.334;23.876;2023-04-09T09:01:35;56391.34;;;-140.56;63.90
10482;BME280;5288;42.334;23.876;2023-04-09T09:04:04;56336.00;;;-140.56;65.77
10482;BME280;5288;42.334;23.876;2023-04-09T09:06:32;56385.41;;;-140.56;64.53
10482;BME280;5288;42.334;23.876;2023-04-09T09:09:05;56334.03;;;-140.56;65.24
10482;BME280;5288;42.334;23.876;2023-04-09T09:11:34;56353.78;;;-140.56;66.33
10482;BME280;5288;42.334;23.876;2023-04-09T09:14:03;56324.13;;;-140.56;65.14
10482;BME280;5288;42.334;23.876;2023-04-09T09:16:30;56310.31;;;-140.56;64.65
10482;BME280;5288;42.334;23.876;2023-04-09T09:18:59;56341.94;;;-140.56;63.99
10482;BME280;5288;42.334;23.876;2023-04-09T09:21:27;56361.69;;;-140.56;64.24
10482;BME280;5288;42.334;23.876;2023-04-09T09:23:54;56371.56;;;-140.56;62.44
10482;BME280;5288;42.334;23.876;2023-04-09T09:26:23;56351.81;;;-140.56;62.40
10482;BME280;5288;42.334;23.876;2023-04-09T09:28:51;56365.66;;;-140.56;63.82
10482;BME280;5288;42.334;23.876;2023-04-09T09:31:20;56336.00;;;-140.56;63.33
10482;BME280;5288;42.334;23.876;2023-04-09T09:33:47;56328.09;;;-140.56;63.02
10482;BME280;5288;42.334;23.876;2023-04-09T09:36:15;56339.94;;;-140.56;62.70
10482;BME280;5288;42.334;23.876;2023-04-09T09:38:56;56336.00;;;-140.56;62.80
10482;BME280;5288;42.334;23.876;2023-04-09T09:41:26;56322.16;;;-140.56;61.11
10482;BME280;5288;42.334;23.876;2023-04-09T09:43:55;56320.19;;;-140.56;60.47
10482;BME280;5288;42.334;23.876;2023-04-09T09:46:24;56343.91;;;-140.56;60.79
10482;BME280;5288;42.334;23.876;2023-04-09T09:48:51;56349.84;;;-140.56;61.07
10482;BME280;5288;42.334;23.876;2023-04-09T09:51:21;56369.59;;;-140.56;59.95
10482;BME280;5288;42.334;23.876;2023-04-09T09:53:53;56330.06;;;-140.56;60.88
10482;BME280;5288;42.334;23.876;2023-04-09T09:56:23;56304.38;;;-140.56;59.98
10482;BME280;5288;42.334;23.876;2023-04-09T09:58:55;56336.00;;;-140.56;60.29
10482;BME280;5288;42.334;23.876;2023-04-09T10:01:28;56345.88;;;-140.56;59.96
10482;BME280;5288;42.334;23.876;2023-04-09T10:03:55;56284.63;;;-140.56;60.26
10482;BME280;5288;42.334;23.876;2023-04-09T10:06:24;56308.34;;;-140.56;59.80
10482;BME280;5288;42.334;23.876;2023-04-09T10:08:56;56282.63;;;-140.56;58.63
10482;BME280;5288;42.334;23.876;2023-04-09T10:11:23;56316.25;;;-140.56;55.78
10482;BME280;5288;42.334;23.876;2023-04-09T10:13:54;56337.97;;;-140.56;56.28
10482;BME280;5288;42.334;23.876;2023-04-09T10:16:23;56318.22;;;-140.56;57.67
10482;BME280;5288;42.334;23.876;2023-04-09T10:18:51;56349.84;;;-140.56;56.87
10482;BME280;5288;42.334;23.876;2023-04-09T10:21:25;56318.22;;;-140.56;56.61
10482;BME280;5288;42.334;23.876;2023-04-09T10:23:56;56318.22;;;-140.56;55.95
10482;BME280;5288;42.334;23.876;2023-04-09T10:26:24;56306.34;;;-140.56;55.97
10482;BME280;5288;42.334;23.876;2023-04-09T10:29:04;56298.44;;;-140.56;54.88
10482;BME280;5288;42.334;23.876;2023-04-09T10:31:52;56332.03;;;-140.56;56.03
10482;BME280;5288;42.334;23.876;2023-04-09T10:34:21;56300.44;;;-140.56;55.30
10482;BME280;5288;42.334;23.876;2023-04-09T10:36:51;56290.53;;;-140.56;54.02
10482;BME280;5288;42.334;23.876;2023-04-09T10:39:19;56298.44;;;-140.56;52.69
10482;BME280;5288;42.334;23.876;2023-04-09T10:41:47;56347.84;;;-140.56;53.05
10482;BME280;5288;42.334;23.876;2023-04-09T10:44:20;56316.25;;;-140.56;54.31
10482;BME280;5288;42.334;23.876;2023-04-09T10:46:48;56298.44;;;-140.56;53.38
10482;BME280;5288;42.334;23.876;2023-04-09T10:49:18;56296.47;;;-140.56;53.57
10482;BME280;5288;42.334;23.876;2023-04-09T10:51:51;56314.25;;;-140.56;52.91
10482;BME280;5288;42.334;23.876;2023-04-09T10:54:43;56316.25;;;-140.56;53.16
10482;BME280;5288;42.334;23.876;2023-04-09T10:57:12;56302.41;;;-140.56;53.61
10482;BME280;5288;42.334;23.876;2023-04-09T10:59:41;56286.59;;;-140.56;53.26
10482;BME280;5288;42.334;23.876;2023-04-09T11:02:16;56308.34;;;-140.56;53.41
10482;BME280;5288;42.334;23.876;2023-04-09T11:05:04;56310.31;;;-140.56;52.51
10482;BME280;5288;42.334;23.876;2023-04-09T11:07:34;56282.63;;;-140.56;55.10
10482;BME280;5288;42.334;23.876;2023-04-09T11:10:06;56332.03;;;-140.56;56.93
10482;BME280;5288;42.334;23.876;2023-04-09T11:12:33;56314.25;;;-140.56;58.26
10482;BME280;5288;42.334;23.876;2023-04-09T11:14:59;56314.25;;;-140.56;58.48
10482;BME280;5288;42.334;23.876;2023-04-09T11:17:27;56312.28;;;-140.56;59.12
10482;BME280;5288;42.334;23.876;2023-04-09T11:19:55;56312.28;;;-140.56;59.14
10482;BME280;5288;42.334;23.876;2023-04-09T11:22:22;56318.22;;;-140.56;59.05
10482;BME280;5288;42.334;23.876;2023-04-09T11:24:49;56284.63;;;-140.56;59.15
10482;BME280;5288;42.334;23.876;2023-04-09T11:27:16;56334.03;;;-140.56;58.96
10482;BME280;5288;42.334;23.876;2023-04-09T11:29:44;56318.22;;;-140.56;59.62
10482;BME280;5288;42.334;23.876;2023-04-09T11:32:11;56292.53;;;-140.56;59.87
10482;BME280;5288;42.334;23.876;2023-04-09T11:34:38;56320.19;;;-140.56;57.17
10482;BME280;5288;42.334;23.876;2023-04-09T11:37:13;56357.75;;;-140.56;58.66
10482;BME280;5288;42.334;23.876;2023-04-09T11:39:42;56320.19;;;-140.56;58.98
10482;BME280;5288;42.334;23.876;2023-04-09T11:42:12;56314.25;;;-140.56;59.47
10482;BME280;5288;42.334;23.876;2023-04-09T11:44:39;56334.03;;;-140.56;60.11
10482;BME280;5288;42.334;23.876;2023-04-09T11:47:07;56318.22;;;-140.56;59.42
10482;BME280;5288;42.334;23.876;2023-04-09T11:49:35;56330.06;;;-140.56;60.14
10482;BME280;5288;42.334;23.876;2023-04-09T11:52:02;56341.94;;;-140.56;60.46
10482;BME280;5288;42.334;23.876;2023-04-09T11:54:32;56345.88;;;-140.56;59.73
10482;BME280;5288;42.334;23.876;2023-04-09T11:56:59;56298.44;;;-140.56;57.63
10482;BME280;5288;42.334;23.876;2023-04-09T11:59:26;56310.31;;;-140.56;57.85
10482;BME280;5288;42.334;23.876;2023-04-09T12:01:56;56300.44;;;-140.56;58.46
10482;BME280;5288;42.334;23.876;2023-04-09T12:04:23;56320.19;;;-140.56;52.84
10482;BME280;5288;42.334;23.876;2023-04-09T12:06:50;56310.31;;;-140.56;51.16
10482;BME280;5288;42.334;23.876;2023-04-09T12:09:17;56306.34;;;-140.56;48.32
10482;BME280;5288;42.334;23.876;2023-04-09T12:11:45;56286.59;;;-140.56;48.46
10482;BME280;5288;42.334;23.876;2023-04-09T12:14:13;56318.22;;;-140.56;47.57
10482;BME280;5288;42.334;23.876;2023-04-09T12:16:42;56320.19;;;-140.56;47.07
10482;BME280;5288;42.334;23.876;2023-04-09T12:19:10;56278.69;;;-140.56;46.84
10482;BME280;5288;42.334;23.876;2023-04-09T12:21:47;56292.53;;;-140.56;47.32
10482;BME280;5288;42.334;23.876;2023-04-09T12:24:15;56286.59;;;-140.56;47.18
10482;BME280;5288;42.334;23.876;2023-04-09T12:26:43;56318.22;;;-140.56;45.80
10482;BME280;5288;42.334;23.876;2023-04-09T12:29:12;56306.34;;;-140.56;47.31
10482;BME280;5288;42.334;23.876;2023-04-09T12:31:40;56306.34;;;-140.56;47.33
10482;BME280;5288;42.334;23.876;2023-04-09T12:34:07;56302.41;;;-140.56;48.11
10482;BME280;5288;42.334;23.876;2023-04-09T12:36:34;56302.41;;;-140.56;47.69
10482;BME280;5288;42.334;23.876;2023-04-09T12:39:01;56300.44;;;-140.56;48.66
10482;BME280;5288;42.334;23.876;2023-04-09T12:41:28;56330.06;;;-140.56;48.69
10482;BME280;5288;42.334;23.876;2023-04-09T12:43:55;56353.78;;;-140.56;49.56
10482;BME280;5288;42.334;23.876;2023-04-09T12:46:24;56308.34;;;-140.56;49.01